METAR AND TAF INFORMATION
METAR FOR YPLM
ADDS - METARS form results

(0628 UTC 20 April 2018)
Data provider http://aviationweather.gov/adds/metars/
 
METAR text: YPLM 200600Z AUTO 09008KT 9999 // NCD 36/M00 Q1010
Conditions at: YPLM (LEARMOUTH , AU) observed 0600 UTC 20 April 2018
Temperature: 36.0°C (97°F)
Dewpoint: 0.0°C (32°F) [RH = 10%]
Pressure (altimeter): 29.82 inches Hg (1010.0 mb)
Winds: from the E (90 degrees) at 9 MPH (8 knots; 4.2 m/s)
Visibility: 6 or more miles (10+ km)
Ceiling: at least 12,000 feet AGL
Clouds: sky clear below 12,000 feet AGL
Weather: no significant weather observed at this time

METAR text: YPLM 200530Z AUTO 09009KT 9999 // NCD 37/01 Q1011
Conditions at: YPLM (LEARMOUTH , AU) observed 0530 UTC 20 April 2018
Temperature: 37.0°C (99°F)
Dewpoint: 1.0°C (34°F) [RH = 10%]
Pressure (altimeter): 29.85 inches Hg (1011.0 mb)
Winds: from the E (90 degrees) at 10 MPH (9 knots; 4.7 m/s)
Visibility: 6 or more miles (10+ km)
Ceiling: at least 12,000 feet AGL
Clouds: sky clear below 12,000 feet AGL
Weather: no significant weather observed at this time

Forecast for: YPLM (LEARMOUTH , AU)
Text: TAF YPLM 200516Z 2006/2106 12010KT CAVOK
Forecast period: 0600 to 1000 UTC 20 April 2018
Forecast type: FROM: standard forecast or significant change
Winds: from the ESE (120 degrees) at 12 MPH (10 knots; 5.2 m/s)
Visibility: 6 or more miles (10+ km)
Clouds: not forecast
Weather: NSW  (no significant weather)
Forecast for: YPLM (LEARMOUTH , AU)
Text: TAF YPLM 200516Z 2006/2106 12010KT CAVOK
Forecast period: 0600 to 1000 UTC 20 April 2018
Forecast type: FROM: standard forecast or significant change
Winds: from the ESE (120 degrees) at 12 MPH (10 knots; 5.2 m/s)
Visibility: 6 or more miles (10+ km)
Clouds: not forecast
Weather: NSW  (no significant weather)
Forecast for: YPLM (LEARMOUTH , AU)
Text: TAF YPLM 200516Z 2006/2106 12010KT CAVOK
Forecast period: 1000 to 1500 UTC 20 April 2018
Forecast type: FROM: standard forecast or significant change
Winds: from the WSW (240 degrees) at 16 MPH (14 knots; 7.3 m/s)
Visibility: 6 or more miles (10+ km)
Clouds: not forecast
Weather: NSW  (no significant weather)
Forecast for: YPLM (LEARMOUTH , AU)
Text: TAF YPLM 200516Z 2006/2106 12010KT CAVOK
Forecast period: 1000 to 1500 UTC 20 April 2018
Forecast type: FROM: standard forecast or significant change
Winds: from the WSW (240 degrees) at 16 MPH (14 knots; 7.3 m/s)
Visibility: 6 or more miles (10+ km)
Clouds: not forecast
Weather: NSW  (no significant weather)
Forecast for: YPLM (LEARMOUTH , AU)
Text: TAF YPLM 200516Z 2006/2106 12010KT CAVOK
Forecast period: 1500 UTC 20 April 2018 to 0200 UTC 21 April 2018
Forecast type: FROM: standard forecast or significant change
Winds: from the S (180 degrees) at 9 MPH (8 knots; 4.2 m/s)
Visibility: 6 or more miles (10+ km)
Clouds: not forecast
Weather: NSW  (no significant weather)
Forecast for: YPLM (LEARMOUTH , AU)
Text: TAF YPLM 200516Z 2006/2106 12010KT CAVOK
Forecast period: 1500 UTC 20 April 2018 to 0200 UTC 21 April 2018
Forecast type: FROM: standard forecast or significant change
Winds: from the S (180 degrees) at 9 MPH (8 knots; 4.2 m/s)
Visibility: 6 or more miles (10+ km)
Clouds: not forecast
Weather: NSW  (no significant weather)
Forecast for: YPLM (LEARMOUTH , AU)
Text: TAF YPLM 200516Z 2006/2106 12010KT CAVOK
Forecast period: 0200 to 0600 UTC 21 April 2018
Forecast type: FROM: standard forecast or significant change
Winds: from the ESE (120 degrees) at 12 MPH (10 knots; 5.2 m/s)
Visibility: 6 or more miles (10+ km)
Clouds: not forecast
Weather: NSW  (no significant weather)
Forecast for: YPLM (LEARMOUTH , AU)
Text: TAF YPLM 200516Z 2006/2106 12010KT CAVOK
Forecast period: 0200 to 0600 UTC 21 April 2018
Forecast type: FROM: standard forecast or significant change
Winds: from the ESE (120 degrees) at 12 MPH (10 knots; 5.2 m/s)
Visibility: 6 or more miles (10+ km)
Clouds: not forecast
Weather: NSW  (no significant weather)

 AIRPORT MAP

 RUNWAY INFORMATION
Runway 18 Runway length 9997 ft Runway width 148 ft
Runway elevation 13 ft Runway displaced threshold 0 ft Runway heading 184
Runway 36 Runway length 9997 ft Runway width 148 ft
Runway elevation 19 ft Runway displaced threshold 0 ft Runway heading 4

 AIRPORT FREQUENCIES
Type APP Name APP Frequency 120.5 MHZ
Type CTAF Name CTAF Frequency 118.3 MHZ
Type FSS Name MELBOURNE Frequency 125.9 MHZ
Type GND Name GND Frequency 25.93 MHZ
Type TWR Name TWR Frequency 25.78 MHZ

 AIRPORT NEAR NAVIGATION AIDS
Type VOR-DME Name Learmonth Frequency 112400 KHZ
Type NDB Name Learmonth Frequency 396 KHZ